sensor_id;sensor_type;location;lat;lon;timestamp;P1;durP1;ratioP1;P2;durP2;ratioP2
39370;SDS011;25099;51.946;4.838;2023-07-13T00:01:29;10.00;;;2.10;;
39370;SDS011;25099;51.946;4.838;2023-07-13T00:03:55;5.80;;;2.15;;
39370;SDS011;25099;51.946;4.838;2023-07-13T00:06:44;7.05;;;2.38;;
39370;SDS011;25099;51.946;4.838;2023-07-13T00:09:11;9.75;;;2.33;;
39370;SDS011;25099;51.946;4.838;2023-07-13T00:11:57;4.38;;;2.10;;
39370;SDS011;25099;51.946;4.838;2023-07-13T00:14:24;8.68;;;2.38;;
39370;SDS011;25099;51.946;4.838;2023-07-13T00:16:51;12.20;;;2.85;;
39370;SDS011;25099;51.946;4.838;2023-07-13T00:21:56;6.55;;;2.17;;
39370;SDS011;25099;51.946;4.838;2023-07-13T00:24:28;11.63;;;3.00;;
39370;SDS011;25099;51.946;4.838;2023-07-13T00:26:54;8.25;;;2.00;;
39370;SDS011;25099;51.946;4.838;2023-07-13T00:29:20;4.82;;;2.20;;
39370;SDS011;25099;51.946;4.838;2023-07-13T00:31:46;7.35;;;2.83;;
39370;SDS011;25099;51.946;4.838;2023-07-13T00:36:43;13.43;;;2.85;;
39370;SDS011;25099;51.946;4.838;2023-07-13T00:39:21;13.57;;;2.85;;
39370;SDS011;25099;51.946;4.838;2023-07-13T00:41:47;10.85;;;2.63;;
39370;SDS011;25099;51.946;4.838;2023-07-13T00:44:14;14.40;;;2.83;;
39370;SDS011;25099;51.946;4.838;2023-07-13T00:46:41;11.30;;;2.90;;
39370;SDS011;25099;51.946;4.838;2023-07-13T00:52:02;12.10;;;2.88;;
39370;SDS011;25099;51.946;4.838;2023-07-13T00:54:36;10.80;;;2.95;;
39370;SDS011;25099;51.946;4.838;2023-07-13T00:57:05;10.85;;;2.90;;
39370;SDS011;25099;51.946;4.838;2023-07-13T00:59:39;10.80;;;2.80;;
39370;SDS011;25099;51.946;4.838;2023-07-13T01:04:47;14.18;;;3.70;;
39370;SDS011;25099;51.946;4.838;2023-07-13T01:07:13;12.20;;;2.80;;
39370;SDS011;25099;51.946;4.838;2023-07-13T01:09:58;10.32;;;2.25;;
39370;SDS011;25099;51.946;4.838;2023-07-13T01:12:24;8.73;;;2.67;;
39370;SDS011;25099;51.946;4.838;2023-07-13T01:17:46;8.30;;;2.60;;
39370;SDS011;25099;51.946;4.838;2023-07-13T01:20:14;9.65;;;2.85;;
39370;SDS011;25099;51.946;4.838;2023-07-13T01:22:52;8.85;;;2.35;;
39370;SDS011;25099;51.946;4.838;2023-07-13T01:25:18;9.48;;;2.45;;
39370;SDS011;25099;51.946;4.838;2023-07-13T01:28:03;11.07;;;2.92;;
39370;SDS011;25099;51.946;4.838;2023-07-13T01:30:48;10.93;;;2.67;;
39370;SDS011;25099;51.946;4.838;2023-07-13T01:33:15;14.13;;;3.33;;
39370;SDS011;25099;51.946;4.838;2023-07-13T01:35:43;8.35;;;3.25;;
39370;SDS011;25099;51.946;4.838;2023-07-13T01:43:42;14.73;;;3.30;;
39370;SDS011;25099;51.946;4.838;2023-07-13T01:46:08;14.65;;;3.47;;
39370;SDS011;25099;51.946;4.838;2023-07-13T01:53:50;12.43;;;3.70;;
39370;SDS011;25099;51.946;4.838;2023-07-13T01:56:16;15.07;;;3.85;;
39370;SDS011;25099;51.946;4.838;2023-07-13T01:58:51;14.57;;;3.38;;
39370;SDS011;25099;51.946;4.838;2023-07-13T02:01:26;16.15;;;3.90;;
39370;SDS011;25099;51.946;4.838;2023-07-13T02:04:10;13.23;;;2.67;;
39370;SDS011;25099;51.946;4.838;2023-07-13T02:06:36;18.95;;;3.70;;
39370;SDS011;25099;51.946;4.838;2023-07-13T02:09:08;15.60;;;3.03;;
39370;SDS011;25099;51.946;4.838;2023-07-13T02:11:48;14.55;;;3.35;;
39370;SDS011;25099;51.946;4.838;2023-07-13T02:14:14;7.93;;;2.85;;
39370;SDS011;25099;51.946;4.838;2023-07-13T02:16:53;8.70;;;2.97;;
39370;SDS011;25099;51.946;4.838;2023-07-13T02:19:19;10.18;;;3.55;;
39370;SDS011;25099;51.946;4.838;2023-07-13T02:24:19;9.57;;;2.45;;
39370;SDS011;25099;51.946;4.838;2023-07-13T02:29:33;8.32;;;3.10;;
39370;SDS011;25099;51.946;4.838;2023-07-13T02:31:59;9.77;;;2.75;;
39370;SDS011;25099;51.946;4.838;2023-07-13T02:34:24;12.60;;;3.53;;
39370;SDS011;25099;51.946;4.838;2023-07-13T02:36:50;12.70;;;3.05;;
39370;SDS011;25099;51.946;4.838;2023-07-13T02:42:26;7.75;;;2.63;;
39370;SDS011;25099;51.946;4.838;2023-07-13T02:44:54;11.55;;;2.95;;
39370;SDS011;25099;51.946;4.838;2023-07-13T02:47:20;7.43;;;3.00;;
39370;SDS011;25099;51.946;4.838;2023-07-13T02:49:45;8.68;;;2.90;;
39370;SDS011;25099;51.946;4.838;2023-07-13T02:52:17;10.02;;;3.10;;
39370;SDS011;25099;51.946;4.838;2023-07-13T02:54:43;14.63;;;4.05;;
39370;SDS011;25099;51.946;4.838;2023-07-13T02:57:24;10.38;;;3.47;;
39370;SDS011;25099;51.946;4.838;2023-07-13T03:00:02;15.90;;;4.28;;
39370;SDS011;25099;51.946;4.838;2023-07-13T03:02:37;12.95;;;3.42;;
39370;SDS011;25099;51.946;4.838;2023-07-13T03:05:10;17.85;;;3.25;;
39370;SDS011;25099;51.946;4.838;2023-07-13T03:10:22;22.50;;;5.43;;
39370;SDS011;25099;51.946;4.838;2023-07-13T03:12:48;13.40;;;4.53;;
39370;SDS011;25099;51.946;4.838;2023-07-13T03:15:24;28.40;;;5.00;;
39370;SDS011;25099;51.946;4.838;2023-07-13T03:17:53;15.77;;;4.43;;
39370;SDS011;25099;51.946;4.838;2023-07-13T03:20:19;15.88;;;3.78;;
39370;SDS011;25099;51.946;4.838;2023-07-13T03:22:45;27.17;;;5.95;;
39370;SDS011;25099;51.946;4.838;2023-07-13T03:25:31;11.95;;;4.90;;
39370;SDS011;25099;51.946;4.838;2023-07-13T03:28:25;17.40;;;5.30;;
39370;SDS011;25099;51.946;4.838;2023-07-13T03:37:39;20.58;;;5.43;;
39370;SDS011;25099;51.946;4.838;2023-07-13T04:22:43;21.38;;;6.00;;
39370;SDS011;25099;51.946;4.838;2023-07-13T04:25:09;19.92;;;5.47;;
39370;SDS011;25099;51.946;4.838;2023-07-13T04:27:35;24.58;;;6.35;;
39370;SDS011;25099;51.946;4.838;2023-07-13T04:30:01;30.25;;;5.90;;
39370;SDS011;25099;51.946;4.838;2023-07-13T04:32:27;19.60;;;4.95;;
39370;SDS011;25099;51.946;4.838;2023-07-13T04:35:08;29.48;;;6.88;;
39370;SDS011;25099;51.946;4.838;2023-07-13T04:37:36;21.27;;;6.53;;
39370;SDS011;25099;51.946;4.838;2023-07-13T04:40:02;21.35;;;6.50;;
39370;SDS011;25099;51.946;4.838;2023-07-13T04:42:29;19.95;;;5.80;;
39370;SDS011;25099;51.946;4.838;2023-07-13T04:45:16;24.08;;;6.22;;
39370;SDS011;25099;51.946;4.838;2023-07-13T04:47:44;29.92;;;6.72;;
39370;SDS011;25099;51.946;4.838;2023-07-13T04:50:12;23.27;;;6.15;;
39370;SDS011;25099;51.946;4.838;2023-07-13T04:52:57;21.35;;;5.95;;
39370;SDS011;25099;51.946;4.838;2023-07-13T04:55:24;19.48;;;6.20;;
39370;SDS011;25099;51.946;4.838;2023-07-13T04:57:50;29.23;;;7.22;;
39370;SDS011;25099;51.946;4.838;2023-07-13T05:00:16;22.45;;;6.47;;
39370;SDS011;25099;51.946;4.838;2023-07-13T05:02:43;17.05;;;5.88;;
39370;SDS011;25099;51.946;4.838;2023-07-13T05:05:19;24.63;;;6.75;;
39370;SDS011;25099;51.946;4.838;2023-07-13T05:07:48;29.30;;;7.35;;
39370;SDS011;25099;51.946;4.838;2023-07-13T05:10:16;27.42;;;7.88;;
39370;SDS011;25099;51.946;4.838;2023-07-13T05:12:42;21.25;;;7.22;;
39370;SDS011;25099;51.946;4.838;2023-07-13T05:15:08;21.63;;;6.85;;
39370;SDS011;25099;51.946;4.838;2023-07-13T05:17:35;22.85;;;7.13;;
39370;SDS011;25099;51.946;4.838;2023-07-13T05:20:12;22.13;;;6.80;;
39370;SDS011;25099;51.946;4.838;2023-07-13T05:22:41;27.10;;;6.70;;
39370;SDS011;25099;51.946;4.838;2023-07-13T05:25:08;22.38;;;7.20;;
39370;SDS011;25099;51.946;4.838;2023-07-13T05:27:34;19.80;;;5.93;;
39370;SDS011;25099;51.946;4.838;2023-07-13T05:30:01;21.23;;;6.63;;
39370;SDS011;25099;51.946;4.838;2023-07-13T05:32:28;24.63;;;5.82;;
39370;SDS011;25099;51.946;4.838;2023-07-13T05:34:53;31.02;;;6.50;;
39370;SDS011;25099;51.946;4.838;2023-07-13T05:37:31;25.42;;;6.32;;
39370;SDS011;25099;51.946;4.838;2023-07-13T05:39:56;27.75;;;6.43;;
39370;SDS011;25099;51.946;4.838;2023-07-13T05:44:55;19.83;;;6.45;;
39370;SDS011;25099;51.946;4.838;2023-07-13T05:47:21;23.33;;;6.82;;
39370;SDS011;25099;51.946;4.838;2023-07-13T05:49:47;22.85;;;7.53;;
39370;SDS011;25099;51.946;4.838;2023-07-13T05:52:13;21.55;;;9.13;;
39370;SDS011;25099;51.946;4.838;2023-07-13T05:54:51;24.42;;;6.72;;
39370;SDS011;25099;51.946;4.838;2023-07-13T05:57:23;36.60;;;8.35;;
39370;SDS011;25099;51.946;4.838;2023-07-13T05:59:49;29.25;;;7.43;;
39370;SDS011;25099;51.946;4.838;2023-07-13T06:02:18;23.55;;;7.05;;
39370;SDS011;25099;51.946;4.838;2023-07-13T06:04:43;25.65;;;7.32;;
39370;SDS011;25099;51.946;4.838;2023-07-13T06:07:09;22.10;;;7.32;;
39370;SDS011;25099;51.946;4.838;2023-07-13T06:09:35;18.90;;;8.55;;
39370;SDS011;25099;51.946;4.838;2023-07-13T06:12:00;20.15;;;7.70;;
39370;SDS011;25099;51.946;4.838;2023-07-13T06:14:26;25.15;;;7.93;;
39370;SDS011;25099;51.946;4.838;2023-07-13T06:16:52;21.35;;;7.18;;
39370;SDS011;25099;51.946;4.838;2023-07-13T06:19:20;29.08;;;7.00;;
39370;SDS011;25099;51.946;4.838;2023-07-13T06:22:00;28.58;;;8.90;;
39370;SDS011;25099;51.946;4.838;2023-07-13T06:24:25;17.67;;;7.07;;
39370;SDS011;25099;51.946;4.838;2023-07-13T06:26:52;22.38;;;7.47;;
39370;SDS011;25099;51.946;4.838;2023-07-13T06:29:23;25.23;;;7.28;;
39370;SDS011;25099;51.946;4.838;2023-07-13T06:31:51;26.55;;;7.13;;
39370;SDS011;25099;51.946;4.838;2023-07-13T06:34:17;17.98;;;7.05;;
39370;SDS011;25099;51.946;4.838;2023-07-13T06:36:52;22.27;;;7.38;;
39370;SDS011;25099;51.946;4.838;2023-07-13T06:39:17;21.60;;;7.35;;
39370;SDS011;25099;51.946;4.838;2023-07-13T06:41:43;24.92;;;8.57;;
39370;SDS011;25099;51.946;4.838;2023-07-13T06:44:12;20.20;;;9.30;;
39370;SDS011;25099;51.946;4.838;2023-07-13T06:46:44;27.83;;;8.18;;
39370;SDS011;25099;51.946;4.838;2023-07-13T06:49:15;25.77;;;9.48;;
39370;SDS011;25099;51.946;4.838;2023-07-13T06:51:41;25.48;;;9.35;;
39370;SDS011;25099;51.946;4.838;2023-07-13T06:54:07;27.02;;;8.98;;
39370;SDS011;25099;51.946;4.838;2023-07-13T06:56:33;22.27;;;9.40;;
39370;SDS011;25099;51.946;4.838;2023-07-13T06:59:05;19.58;;;9.75;;
39370;SDS011;25099;51.946;4.838;2023-07-13T07:01:31;22.52;;;9.63;;
39370;SDS011;25099;51.946;4.838;2023-07-13T07:03:56;36.33;;;10.38;;
39370;SDS011;25099;51.946;4.838;2023-07-13T07:06:22;23.98;;;10.00;;
39370;SDS011;25099;51.946;4.838;2023-07-13T07:08:49;20.80;;;10.07;;
39370;SDS011;25099;51.946;4.838;2023-07-13T07:11:24;21.52;;;9.52;;
39370;SDS011;25099;51.946;4.838;2023-07-13T07:13:51;29.67;;;9.65;;
39370;SDS011;25099;51.946;4.838;2023-07-13T07:16:27;23.60;;;9.77;;
39370;SDS011;25099;51.946;4.838;2023-07-13T07:18:58;21.42;;;9.00;;
39370;SDS011;25099;51.946;4.838;2023-07-13T07:21:32;22.15;;;10.10;;
39370;SDS011;25099;51.946;4.838;2023-07-13T07:24:07;28.60;;;9.55;;
39370;SDS011;25099;51.946;4.838;2023-07-13T07:26:33;18.92;;;9.60;;
39370;SDS011;25099;51.946;4.838;2023-07-13T07:29:05;28.83;;;11.48;;
39370;SDS011;25099;51.946;4.838;2023-07-13T07:31:34;29.95;;;10.27;;
39370;SDS011;25099;51.946;4.838;2023-07-13T07:33:59;19.77;;;8.68;;
39370;SDS011;25099;51.946;4.838;2023-07-13T07:36:34;17.92;;;8.55;;
39370;SDS011;25099;51.946;4.838;2023-07-13T07:39:05;8.45;;;5.65;;
39370;SDS011;25099;51.946;4.838;2023-07-13T07:41:52;10.73;;;4.05;;
39370;SDS011;25099;51.946;4.838;2023-07-13T07:44:17;10.32;;;2.53;;
39370;SDS011;25099;51.946;4.838;2023-07-13T07:46:43;8.02;;;4.15;;
39370;SDS011;25099;51.946;4.838;2023-07-13T07:49:09;10.32;;;3.78;;
39370;SDS011;25099;51.946;4.838;2023-07-13T07:51:35;9.90;;;3.00;;
39370;SDS011;25099;51.946;4.838;2023-07-13T07:54:10;5.97;;;2.85;;
39370;SDS011;25099;51.946;4.838;2023-07-13T07:56:42;8.10;;;3.85;;
39370;SDS011;25099;51.946;4.838;2023-07-13T07:59:08;6.65;;;3.95;;
39370;SDS011;25099;51.946;4.838;2023-07-13T08:01:33;6.45;;;3.63;;
39370;SDS011;25099;51.946;4.838;2023-07-13T08:03:59;5.55;;;3.00;;
39370;SDS011;25099;51.946;4.838;2023-07-13T08:06:25;8.45;;;3.15;;
39370;SDS011;25099;51.946;4.838;2023-07-13T08:08:50;4.53;;;2.53;;
39370;SDS011;25099;51.946;4.838;2023-07-13T08:11:34;2.83;;;1.85;;
39370;SDS011;25099;51.946;4.838;2023-07-13T08:16:55;6.20;;;2.65;;
39370;SDS011;25099;51.946;4.838;2023-07-13T08:19:26;3.72;;;2.30;;
39370;SDS011;25099;51.946;4.838;2023-07-13T08:27:48;6.65;;;3.30;;
39370;SDS011;25099;51.946;4.838;2023-07-13T08:30:14;7.15;;;3.60;;
39370;SDS011;25099;51.946;4.838;2023-07-13T08:32:52;8.27;;;3.70;;
39370;SDS011;25099;51.946;4.838;2023-07-13T08:35:18;6.78;;;3.78;;
39370;SDS011;25099;51.946;4.838;2023-07-13T08:37:44;12.10;;;4.72;;
39370;SDS011;25099;51.946;4.838;2023-07-13T08:40:10;9.63;;;3.70;;
39370;SDS011;25099;51.946;4.838;2023-07-13T08:42:39;7.97;;;4.75;;
39370;SDS011;25099;51.946;4.838;2023-07-13T08:48:13;10.27;;;4.00;;
39370;SDS011;25099;51.946;4.838;2023-07-13T08:50:49;12.38;;;3.33;;
39370;SDS011;25099;51.946;4.838;2023-07-13T08:53:23;5.40;;;3.63;;
39370;SDS011;25099;51.946;4.838;2023-07-13T08:55:51;12.30;;;4.28;;
39370;SDS011;25099;51.946;4.838;2023-07-13T08:58:22;9.98;;;3.60;;
39370;SDS011;25099;51.946;4.838;2023-07-13T09:01:15;9.38;;;3.75;;
39370;SDS011;25099;51.946;4.838;2023-07-13T09:06:56;10.35;;;3.75;;
39370;SDS011;25099;51.946;4.838;2023-07-13T09:15:30;11.10;;;3.15;;
39370;SDS011;25099;51.946;4.838;2023-07-13T09:18:08;7.20;;;2.85;;
39370;SDS011;25099;51.946;4.838;2023-07-13T09:20:46;16.13;;;4.40;;
39370;SDS011;25099;51.946;4.838;2023-07-13T09:23:15;7.95;;;3.25;;
39370;SDS011;25099;51.946;4.838;2023-07-13T09:25:45;7.40;;;3.70;;
39370;SDS011;25099;51.946;4.838;2023-07-13T09:28:19;6.05;;;3.60;;
39370;SDS011;25099;51.946;4.838;2023-07-13T09:31:07;3.90;;;2.78;;
39370;SDS011;25099;51.946;4.838;2023-07-13T09:33:37;8.20;;;2.55;;
39370;SDS011;25099;51.946;4.838;2023-07-13T09:36:15;6.65;;;3.22;;
39370;SDS011;25099;51.946;4.838;2023-07-13T09:39:14;6.63;;;3.67;;
39370;SDS011;25099;51.946;4.838;2023-07-13T09:47:15;8.80;;;5.28;;
39370;SDS011;25099;51.946;4.838;2023-07-13T09:49:53;7.18;;;3.65;;
39370;SDS011;25099;51.946;4.838;2023-07-13T09:52:20;9.60;;;3.40;;
39370;SDS011;25099;51.946;4.838;2023-07-13T11:00:35;11.25;;;4.10;;
39370;SDS011;25099;51.946;4.838;2023-07-13T11:15:26;6.22;;;3.35;;
39370;SDS011;25099;51.946;4.838;2023-07-13T11:18:31;8.30;;;3.00;;
39370;SDS011;25099;51.946;4.838;2023-07-13T11:31:35;3.13;;;2.38;;
39370;SDS011;25099;51.946;4.838;2023-07-13T11:48:29;9.35;;;2.97;;
39370;SDS011;25099;51.946;4.838;2023-07-13T11:54:13;2.95;;;2.53;;
39370;SDS011;25099;51.946;4.838;2023-07-13T11:57:24;6.88;;;3.30;;
39370;SDS011;25099;51.946;4.838;2023-07-13T12:08:57;5.68;;;3.10;;
39370;SDS011;25099;51.946;4.838;2023-07-13T12:27:50;4.13;;;2.53;;
39370;SDS011;25099;51.946;4.838;2023-07-13T12:49:52;6.55;;;2.58;;
39370;SDS011;25099;51.946;4.838;2023-07-13T12:54:54;6.95;;;2.88;;
39370;SDS011;25099;51.946;4.838;2023-07-13T12:57:52;10.93;;;3.42;;
39370;SDS011;25099;51.946;4.838;2023-07-13T13:03:49;4.63;;;2.50;;
39370;SDS011;25099;51.946;4.838;2023-07-13T13:57:06;3.38;;;2.20;;
39370;SDS011;25099;51.946;4.838;2023-07-13T14:02:07;3.70;;;2.10;;
39370;SDS011;25099;51.946;4.838;2023-07-13T14:05:02;3.72;;;1.90;;
39370;SDS011;25099;51.946;4.838;2023-07-13T14:07:45;3.20;;;1.98;;
39370;SDS011;25099;51.946;4.838;2023-07-13T14:10:12;3.65;;;1.98;;
39370;SDS011;25099;51.946;4.838;2023-07-13T14:12:55;2.50;;;1.90;;
39370;SDS011;25099;51.946;4.838;2023-07-13T14:15:23;2.10;;;1.85;;
39370;SDS011;25099;51.946;4.838;2023-07-13T14:17:54;2.47;;;1.70;;
39370;SDS011;25099;51.946;4.838;2023-07-13T14:20:20;2.38;;;1.45;;
39370;SDS011;25099;51.946;4.838;2023-07-13T14:23:19;2.13;;;1.65;;
39370;SDS011;25099;51.946;4.838;2023-07-13T14:25:59;2.75;;;1.55;;
39370;SDS011;25099;51.946;4.838;2023-07-13T14:28:26;2.38;;;1.58;;
39370;SDS011;25099;51.946;4.838;2023-07-13T14:30:53;3.33;;;1.27;;
39370;SDS011;25099;51.946;4.838;2023-07-13T14:33:33;4.50;;;2.00;;
39370;SDS011;25099;51.946;4.838;2023-07-13T14:35:59;5.65;;;1.60;;
39370;SDS011;25099;51.946;4.838;2023-07-13T14:38:31;4.72;;;1.67;;
39370;SDS011;25099;51.946;4.838;2023-07-13T14:41:03;3.85;;;1.73;;
39370;SDS011;25099;51.946;4.838;2023-07-13T14:43:48;3.58;;;2.75;;
39370;SDS011;25099;51.946;4.838;2023-07-13T14:49:05;5.00;;;2.25;;
39370;SDS011;25099;51.946;4.838;2023-07-13T14:54:01;4.85;;;1.77;;
39370;SDS011;25099;51.946;4.838;2023-07-13T14:59:08;5.88;;;2.00;;
39370;SDS011;25099;51.946;4.838;2023-07-13T15:01:49;1.67;;;1.42;;
39370;SDS011;25099;51.946;4.838;2023-07-13T15:04:16;4.40;;;1.55;;
39370;SDS011;25099;51.946;4.838;2023-07-13T15:07:00;3.88;;;1.50;;
39370;SDS011;25099;51.946;4.838;2023-07-13T15:09:28;4.15;;;1.40;;
39370;SDS011;25099;51.946;4.838;2023-07-13T15:12:18;6.38;;;2.40;;
39370;SDS011;25099;51.946;4.838;2023-07-13T15:14:45;3.25;;;1.38;;
39370;SDS011;25099;51.946;4.838;2023-07-13T15:17:27;3.50;;;1.30;;
39370;SDS011;25099;51.946;4.838;2023-07-13T15:23:12;4.35;;;1.60;;
39370;SDS011;25099;51.946;4.838;2023-07-13T15:28:13;1.77;;;1.45;;
39370;SDS011;25099;51.946;4.838;2023-07-13T15:30:43;2.75;;;1.45;;
39370;SDS011;25099;51.946;4.838;2023-07-13T15:33:27;3.70;;;1.40;;
39370;SDS011;25099;51.946;4.838;2023-07-13T15:35:54;2.40;;;1.40;;
39370;SDS011;25099;51.946;4.838;2023-07-13T15:38:30;2.22;;;1.35;;
39370;SDS011;25099;51.946;4.838;2023-07-13T15:43:25;3.13;;;1.60;;
39370;SDS011;25099;51.946;4.838;2023-07-13T15:48:38;2.00;;;1.45;;
39370;SDS011;25099;51.946;4.838;2023-07-13T15:53:30;2.00;;;1.30;;
39370;SDS011;25099;51.946;4.838;2023-07-13T15:56:23;3.13;;;1.30;;
39370;SDS011;25099;51.946;4.838;2023-07-13T15:59:10;2.05;;;1.30;;
39370;SDS011;25099;51.946;4.838;2023-07-13T16:01:58;4.07;;;2.25;;
39370;SDS011;25099;51.946;4.838;2023-07-13T16:04:29;7.05;;;2.22;;
39370;SDS011;25099;51.946;4.838;2023-07-13T16:06:57;1.75;;;1.40;;
39370;SDS011;25099;51.946;4.838;2023-07-13T16:09:29;3.00;;;1.40;;
39370;SDS011;25099;51.946;4.838;2023-07-13T16:11:58;5.63;;;1.48;;
39370;SDS011;25099;51.946;4.838;2023-07-13T16:14:37;2.22;;;1.40;;
39370;SDS011;25099;51.946;4.838;2023-07-13T16:19:29;3.65;;;1.73;;
39370;SDS011;25099;51.946;4.838;2023-07-13T16:24:51;2.75;;;1.70;;
39370;SDS011;25099;51.946;4.838;2023-07-13T16:27:30;2.55;;;2.00;;
39370;SDS011;25099;51.946;4.838;2023-07-13T16:32:30;5.25;;;1.75;;
39370;SDS011;25099;51.946;4.838;2023-07-13T16:34:55;5.80;;;2.15;;
39370;SDS011;25099;51.946;4.838;2023-07-13T16:37:26;4.47;;;1.70;;
39370;SDS011;25099;51.946;4.838;2023-07-13T16:39:55;6.18;;;1.98;;
39370;SDS011;25099;51.946;4.838;2023-07-13T16:42:46;9.18;;;3.28;;
39370;SDS011;25099;51.946;4.838;2023-07-13T16:45:12;7.20;;;2.67;;
39370;SDS011;25099;51.946;4.838;2023-07-13T16:47:53;5.45;;;2.17;;
39370;SDS011;25099;51.946;4.838;2023-07-13T16:50:21;3.35;;;2.08;;
39370;SDS011;25099;51.946;4.838;2023-07-13T16:53:40;3.75;;;2.10;;
39370;SDS011;25099;51.946;4.838;2023-07-13T16:56:01;4.40;;;1.77;;
39370;SDS011;25099;51.946;4.838;2023-07-13T16:58:38;5.50;;;2.13;;
39370;SDS011;25099;51.946;4.838;2023-07-13T17:01:22;2.92;;;2.03;;
39370;SDS011;25099;51.946;4.838;2023-07-13T17:04:07;3.65;;;2.15;;
39370;SDS011;25099;51.946;4.838;2023-07-13T17:06:44;2.55;;;1.48;;
39370;SDS011;25099;51.946;4.838;2023-07-13T17:11:59;6.20;;;2.40;;
39370;SDS011;25099;51.946;4.838;2023-07-13T17:14:42;2.85;;;2.00;;
39370;SDS011;25099;51.946;4.838;2023-07-13T17:17:25;2.72;;;1.45;;
39370;SDS011;25099;51.946;4.838;2023-07-13T17:20:05;2.35;;;1.70;;
39370;SDS011;25099;51.946;4.838;2023-07-13T17:22:43;4.28;;;1.25;;
39370;SDS011;25099;51.946;4.838;2023-07-13T17:25:13;3.05;;;1.30;;
39370;SDS011;25099;51.946;4.838;2023-07-13T18:26:12;2.97;;;1.70;;
39370;SDS011;25099;51.946;4.838;2023-07-13T18:28:41;5.20;;;1.73;;
39370;SDS011;25099;51.946;4.838;2023-07-13T18:31:10;2.35;;;1.73;;
39370;SDS011;25099;51.946;4.838;2023-07-13T18:34:15;2.17;;;1.38;;
39370;SDS011;25099;51.946;4.838;2023-07-13T18:36:42;2.35;;;1.48;;
39370;SDS011;25099;51.946;4.838;2023-07-13T18:39:13;4.00;;;1.65;;
39370;SDS011;25099;51.946;4.838;2023-07-13T18:41:40;3.60;;;1.40;;
39370;SDS011;25099;51.946;4.838;2023-07-13T18:44:22;3.63;;;1.92;;
39370;SDS011;25099;51.946;4.838;2023-07-13T18:49:28;2.25;;;1.40;;
39370;SDS011;25099;51.946;4.838;2023-07-13T19:10:35;4.57;;;1.55;;
39370;SDS011;25099;51.946;4.838;2023-07-13T19:13:15;3.22;;;1.45;;
39370;SDS011;25099;51.946;4.838;2023-07-13T19:23:39;8.48;;;2.03;;
39370;SDS011;25099;51.946;4.838;2023-07-13T19:26:20;2.72;;;1.75;;
39370;SDS011;25099;51.946;4.838;2023-07-13T19:31:21;6.03;;;2.20;;
39370;SDS011;25099;51.946;4.838;2023-07-13T19:33:57;4.25;;;1.90;;
39370;SDS011;25099;51.946;4.838;2023-07-13T19:36:27;7.53;;;2.70;;
39370;SDS011;25099;51.946;4.838;2023-07-13T19:41:22;2.72;;;1.50;;
39370;SDS011;25099;51.946;4.838;2023-07-13T19:43:50;4.45;;;1.75;;
39370;SDS011;25099;51.946;4.838;2023-07-13T19:46:38;4.63;;;1.77;;
39370;SDS011;25099;51.946;4.838;2023-07-13T19:49:04;4.78;;;2.17;;
39370;SDS011;25099;51.946;4.838;2023-07-13T19:51:49;3.97;;;1.65;;
39370;SDS011;25099;51.946;4.838;2023-07-13T19:54:15;3.33;;;1.70;;
39370;SDS011;25099;51.946;4.838;2023-07-13T19:56:53;5.78;;;2.05;;
39370;SDS011;25099;51.946;4.838;2023-07-13T19:59:32;5.50;;;2.30;;
39370;SDS011;25099;51.946;4.838;2023-07-13T20:26:20;2.70;;;1.65;;
39370;SDS011;25099;51.946;4.838;2023-07-13T20:29:24;4.07;;;1.20;;
39370;SDS011;25099;51.946;4.838;2023-07-13T20:45:28;4.55;;;1.52;;
39370;SDS011;25099;51.946;4.838;2023-07-13T20:48:28;2.30;;;1.50;;
39370;SDS011;25099;51.946;4.838;2023-07-13T21:26:33;5.72;;;1.73;;
39370;SDS011;25099;51.946;4.838;2023-07-13T21:29:24;3.97;;;1.50;;
39370;SDS011;25099;51.946;4.838;2023-07-13T21:35:08;3.45;;;2.05;;
39370;SDS011;25099;51.946;4.838;2023-07-13T21:45:20;3.33;;;1.80;;
39370;SDS011;25099;51.946;4.838;2023-07-13T21:47:48;3.55;;;1.85;;
39370;SDS011;25099;51.946;4.838;2023-07-13T21:50:17;6.78;;;2.20;;
39370;SDS011;25099;51.946;4.838;2023-07-13T21:52:45;2.87;;;1.90;;
39370;SDS011;25099;51.946;4.838;2023-07-13T21:55:17;4.03;;;1.83;;
39370;SDS011;25099;51.946;4.838;2023-07-13T21:58:03;3.45;;;1.70;;
39370;SDS011;25099;51.946;4.838;2023-07-13T22:00:37;3.95;;;1.83;;
39370;SDS011;25099;51.946;4.838;2023-07-13T22:03:04;3.75;;;2.33;;
39370;SDS011;25099;51.946;4.838;2023-07-13T22:05:53;4.70;;;1.80;;
39370;SDS011;25099;51.946;4.838;2023-07-13T22:08:41;5.45;;;2.00;;
39370;SDS011;25099;51.946;4.838;2023-07-13T22:11:09;3.30;;;2.00;;
39370;SDS011;25099;51.946;4.838;2023-07-13T22:13:52;5.93;;;2.10;;
39370;SDS011;25099;51.946;4.838;2023-07-13T22:16:28;5.40;;;2.03;;
39370;SDS011;25099;51.946;4.838;2023-07-13T22:19:13;3.58;;;1.92;;
39370;SDS011;25099;51.946;4.838;2023-07-13T22:21:41;6.90;;;2.88;;
39370;SDS011;25099;51.946;4.838;2023-07-13T22:24:17;9.88;;;2.17;;
39370;SDS011;25099;51.946;4.838;2023-07-13T22:26:55;7.07;;;2.17;;
39370;SDS011;25099;51.946;4.838;2023-07-13T22:29:23;5.00;;;2.20;;
39370;SDS011;25099;51.946;4.838;2023-07-13T22:31:52;4.25;;;2.17;;
39370;SDS011;25099;51.946;4.838;2023-07-13T22:34:21;3.95;;;1.85;;
39370;SDS011;25099;51.946;4.838;2023-07-13T22:36:47;7.00;;;2.20;;
39370;SDS011;25099;51.946;4.838;2023-07-13T22:39:14;2.83;;;1.98;;
39370;SDS011;25099;51.946;4.838;2023-07-13T22:41:52;2.42;;;1.92;;
39370;SDS011;25099;51.946;4.838;2023-07-13T22:44:29;10.73;;;2.70;;
39370;SDS011;25099;51.946;4.838;2023-07-13T22:50:31;5.50;;;2.38;;
39370;SDS011;25099;51.946;4.838;2023-07-13T22:53:00;5.88;;;2.30;;
39370;SDS011;25099;51.946;4.838;2023-07-13T22:55:34;2.88;;;2.13;;
39370;SDS011;25099;51.946;4.838;2023-07-13T22:57:59;7.32;;;2.90;;
39370;SDS011;25099;51.946;4.838;2023-07-13T23:00:27;5.45;;;2.20;;
39370;SDS011;25099;51.946;4.838;2023-07-13T23:03:15;3.08;;;1.80;;
39370;SDS011;25099;51.946;4.838;2023-07-13T23:05:46;7.05;;;2.60;;
39370;SDS011;25099;51.946;4.838;2023-07-13T23:08:24;9.65;;;2.53;;
39370;SDS011;25099;51.946;4.838;2023-07-13T23:10:50;6.05;;;2.72;;
39370;SDS011;25099;51.946;4.838;2023-07-13T23:13:18;4.93;;;2.30;;
39370;SDS011;25099;51.946;4.838;2023-07-13T23:15:56;4.28;;;2.10;;
39370;SDS011;25099;51.946;4.838;2023-07-13T23:18:22;7.93;;;2.72;;
39370;SDS011;25099;51.946;4.838;2023-07-13T23:20:57;6.95;;;2.60;;
39370;SDS011;25099;51.946;4.838;2023-07-13T23:23:23;6.50;;;2.33;;
39370;SDS011;25099;51.946;4.838;2023-07-13T23:25:48;4.93;;;2.40;;
39370;SDS011;25099;51.946;4.838;2023-07-13T23:31:11;7.03;;;2.40;;
39370;SDS011;25099;51.946;4.838;2023-07-13T23:33:41;10.98;;;2.60;;
39370;SDS011;25099;51.946;4.838;2023-07-13T23:36:13;11.52;;;3.20;;
39370;SDS011;25099;51.946;4.838;2023-07-13T23:38:40;7.40;;;2.65;;
39370;SDS011;25099;51.946;4.838;2023-07-13T23:41:10;5.05;;;2.53;;
39370;SDS011;25099;51.946;4.838;2023-07-13T23:43:37;6.00;;;2.67;;
39370;SDS011;25099;51.946;4.838;2023-07-13T23:46:05;6.43;;;2.53;;
39370;SDS011;25099;51.946;4.838;2023-07-13T23:51:53;5.55;;;2.67;;
39370;SDS011;25099;51.946;4.838;2023-07-13T23:54:38;8.30;;;3.00;;
39370;SDS011;25099;51.946;4.838;2023-07-13T23:57:03;4.82;;;2.92;;
39370;SDS011;25099;51.946;4.838;2023-07-13T23:59:30;7.68;;;2.72;;
